createdAt,value
2018-04-29T13:45:23.406Z,31.19
2018-04-29T13:47:53.314Z,31.03
2018-04-29T13:50:23.110Z,31.12
2018-04-29T13:52:53.276Z,30.87
2018-04-29T13:55:23.109Z,30.93
2018-04-29T13:57:52.816Z,31.10
2018-04-29T14:00:22.564Z,31.02
2018-04-29T14:02:52.895Z,31.30
2018-04-29T14:05:23.353Z,31.25
2018-04-29T14:07:53.743Z,31.37
2018-04-29T14:10:23.664Z,31.79
2018-04-29T14:12:53.551Z,31.20
2018-04-29T14:15:24.109Z,30.99
2018-04-29T14:17:53.944Z,31.28
2018-04-29T14:20:24.356Z,31.35
2018-04-29T14:22:54.440Z,31.45
2018-04-29T14:25:24.743Z,30.67
2018-04-29T14:27:54.640Z,31.03
2018-04-29T14:30:24.989Z,30.76
2018-04-29T14:32:54.797Z,30.25
2018-04-29T14:35:25.208Z,30.12
2018-04-29T14:37:55.200Z,30.46
2018-04-29T14:40:25.311Z,30.42
2018-04-29T14:42:55.351Z,30.15
2018-04-29T14:45:25.174Z,30.03
2018-04-29T14:47:55.785Z,29.95
2018-04-29T14:50:26.386Z,29.51
2018-04-29T14:52:56.528Z,29.02
2018-04-29T14:55:26.863Z,29.00
2018-04-29T14:57:56.597Z,28.86
2018-04-29T15:00:26.983Z,29.04
2018-04-29T15:02:57.691Z,29.26
2018-04-29T15:05:28.536Z,29.36
2018-04-29T15:07:58.319Z,29.13
2018-04-29T15:10:29.901Z,28.85
2018-04-29T15:13:04.151Z,28.79
2018-04-29T15:15:34.226Z,28.66
2018-04-29T15:18:04.290Z,28.72
2018-04-29T15:20:34.802Z,28.15
2018-04-29T15:27:13.100Z,27.58
2018-04-29T16:11:51.340Z,24.60
2018-04-29T16:14:22.281Z,24.41
2018-04-29T16:16:52.621Z,24.29
2018-04-29T16:19:22.762Z,24.24
2018-04-29T16:21:52.824Z,24.18
2018-04-29T16:24:22.959Z,23.96
2018-04-29T16:26:52.809Z,23.81
2018-04-29T16:29:22.970Z,23.79
2018-04-29T16:31:52.835Z,23.55
2018-04-29T16:34:23.138Z,23.52
2018-04-29T16:36:53.222Z,23.39
2018-04-29T16:39:23.375Z,23.37
2018-04-29T16:41:53.727Z,23.12
2018-04-29T16:44:23.725Z,23.13
2018-04-29T16:46:53.824Z,23.07
2018-04-29T16:49:23.612Z,23.00
2018-04-29T16:51:53.596Z,22.83
2018-04-29T16:54:23.851Z,22.69
2018-04-29T16:56:54.013Z,22.65
2018-04-29T16:59:24.417Z,22.62
2018-04-29T17:01:54.930Z,22.63
2018-04-29T17:04:25.628Z,22.40
2018-04-29T17:06:55.598Z,22.41
2018-04-29T17:09:25.968Z,22.15
2018-04-29T17:11:56.071Z,21.95
2018-04-29T17:14:26.417Z,21.79
2018-04-29T17:16:56.737Z,21.83
2018-04-29T17:19:26.901Z,21.85
2018-04-29T17:21:57.063Z,21.67
2018-04-29T17:24:27.082Z,21.50
2018-04-29T17:26:56.970Z,21.49
2018-04-29T17:29:27.011Z,21.42
2018-04-29T17:31:57.072Z,21.34
2018-04-29T17:34:27.276Z,21.32
2018-04-29T17:36:57.372Z,21.24
2018-04-29T17:39:27.731Z,21.11
2018-04-29T17:41:57.692Z,20.98
2018-04-29T17:44:28.012Z,20.98
2018-04-29T17:46:57.817Z,21.10
2018-04-29T17:49:27.897Z,21.10
2018-04-29T17:51:58.172Z,20.84
2018-04-29T17:54:27.922Z,20.86
2018-04-29T17:56:57.736Z,20.84
2018-04-29T17:59:27.570Z,20.75
2018-04-29T18:01:57.306Z,20.81
2018-04-29T18:11:14.192Z,19.98
2018-04-29T18:13:44.143Z,20.09
2018-04-29T18:16:14.485Z,20.01
2018-04-29T18:18:44.665Z,19.94
2018-04-29T18:21:15.175Z,19.94
2018-04-29T18:23:45.058Z,19.76
2018-04-29T18:26:15.041Z,19.72
2018-04-29T18:28:45.284Z,19.55
2018-04-29T18:31:15.128Z,19.43
2018-04-29T18:33:45.409Z,19.49
2018-04-29T18:36:15.862Z,19.41
2018-04-29T18:38:46.434Z,19.49
2018-04-29T18:41:16.492Z,19.40
2018-04-29T18:43:46.684Z,19.42
2018-04-29T18:46:16.939Z,19.31
2018-04-29T18:48:46.707Z,19.22
2018-04-29T18:51:17.216Z,19.13
2018-04-29T18:53:46.998Z,19.14
2018-04-29T18:56:17.361Z,18.99
2018-04-29T18:58:47.254Z,18.93
2018-04-29T19:01:17.343Z,18.86
2018-04-29T19:03:47.501Z,18.74
2018-04-29T19:06:17.358Z,18.57
2018-04-29T19:08:47.237Z,18.47
2018-04-29T19:11:17.250Z,18.65
2018-04-29T19:13:47.109Z,18.63
2018-04-29T19:16:17.125Z,18.56
2018-04-29T19:18:47.168Z,18.53
2018-04-29T19:21:17.356Z,18.32
2018-04-29T19:23:47.825Z,18.45
2018-04-29T19:26:17.969Z,18.32
2018-04-29T19:28:48.118Z,18.15
2018-04-29T19:31:18.420Z,18.01
2018-04-29T19:33:48.485Z,18.03
2018-04-29T19:36:18.806Z,17.98
2018-04-29T19:38:48.591Z,17.63
2018-04-29T19:41:18.856Z,17.66
2018-04-29T19:43:49.304Z,17.60
2018-04-29T19:46:19.404Z,17.68
2018-04-29T19:48:49.309Z,17.63
2018-04-29T19:51:19.368Z,17.59
2018-04-29T19:53:49.779Z,17.40
2018-04-29T19:56:19.536Z,17.25
2018-04-29T19:58:49.800Z,17.33
2018-04-29T20:01:19.991Z,17.33
2018-04-29T20:03:50.039Z,17.23
2018-04-29T20:06:20.253Z,17.12
2018-04-29T20:08:50.065Z,17.15
2018-04-29T20:11:20.161Z,17.10
2018-04-29T20:13:50.160Z,17.15
2018-04-29T20:16:20.121Z,17.09
2018-04-29T20:18:50.460Z,17.17
2018-04-29T20:21:20.639Z,17.03
2018-04-29T20:23:50.621Z,16.77
2018-04-29T20:26:20.815Z,16.64
2018-04-29T20:28:50.852Z,16.71
2018-04-29T20:31:20.962Z,16.66
2018-04-29T20:33:51.069Z,16.39
2018-04-29T20:36:21.315Z,16.48
2018-04-29T20:38:51.660Z,16.43
2018-04-29T20:41:22.202Z,16.33
2018-04-29T20:43:52.010Z,16.33
2018-04-29T20:46:22.362Z,16.38
2018-04-29T20:48:52.362Z,16.23
2018-04-29T20:51:22.111Z,16.29
2018-04-29T20:53:52.250Z,16.09
2018-04-29T20:56:22.534Z,16.00
2018-04-29T20:58:52.837Z,15.68
2018-04-29T21:01:23.040Z,15.70
2018-04-29T21:03:53.092Z,15.67
2018-04-29T21:06:23.244Z,15.54
2018-04-29T21:08:53.559Z,15.43
2018-04-29T21:11:23.754Z,15.44
2018-04-29T21:13:53.794Z,15.33
2018-04-29T21:16:23.804Z,15.29
2018-04-29T21:18:54.042Z,15.39
2018-04-29T21:21:23.834Z,15.35
2018-04-29T21:23:53.979Z,15.33
2018-04-29T21:26:24.104Z,15.33
2018-04-29T21:28:53.911Z,15.15
2018-04-29T21:31:23.710Z,15.14
2018-04-29T21:33:53.852Z,15.05
2018-04-29T21:36:24.234Z,15.09
2018-04-29T21:38:54.425Z,14.94
2018-04-29T21:41:24.531Z,15.01
2018-04-29T21:43:54.707Z,14.94
2018-04-29T21:46:24.961Z,14.83
2018-04-29T21:48:55.080Z,14.85
2018-04-29T21:51:24.853Z,14.78
2018-04-29T21:53:55.082Z,14.80
2018-04-29T21:56:25.420Z,14.70
2018-04-29T21:58:55.686Z,14.60
2018-04-29T22:01:25.931Z,14.57
2018-04-29T22:03:56.415Z,14.45
2018-04-29T22:06:26.582Z,14.30
2018-04-29T22:08:56.472Z,14.37
2018-04-29T22:11:26.706Z,14.41
2018-04-29T22:13:57.069Z,14.37
2018-04-29T22:16:26.925Z,14.32
2018-04-29T22:18:56.710Z,14.14
2018-04-29T22:21:27.019Z,13.96
2018-04-29T22:23:57.428Z,13.91
2018-04-29T22:26:27.871Z,13.85
2018-04-29T22:28:57.737Z,13.78
2018-04-29T22:31:27.484Z,13.82
2018-04-29T22:33:57.560Z,13.84
2018-04-29T22:36:27.381Z,13.75
2018-04-29T22:38:57.197Z,13.77
2018-04-29T22:41:27.228Z,13.53
2018-04-29T22:43:57.538Z,13.53
2018-04-29T22:46:27.466Z,13.62
2018-04-29T22:48:57.779Z,13.57
2018-04-29T22:51:28.000Z,13.43
2018-04-29T22:53:58.257Z,13.41
2018-04-29T22:56:28.061Z,13.34
2018-04-29T22:58:57.787Z,13.32
2018-04-29T23:01:27.592Z,13.41
2018-04-29T23:03:57.520Z,13.28
2018-04-29T23:06:27.680Z,13.18
2018-04-29T23:08:57.462Z,13.26
2018-04-29T23:11:27.738Z,13.26
2018-04-29T23:13:57.455Z,13.19
2018-04-29T23:16:27.628Z,13.22
2018-04-29T23:18:57.977Z,13.21
2018-04-29T23:21:28.231Z,13.21
2018-04-29T23:23:58.505Z,13.06
2018-04-29T23:26:28.643Z,12.97
2018-04-29T23:28:58.868Z,12.86
2018-04-29T23:31:28.832Z,12.87
2018-04-29T23:33:58.676Z,12.83
2018-04-29T23:36:28.462Z,12.87
2018-04-29T23:38:58.800Z,12.92
2018-04-29T23:41:28.907Z,13.01
2018-04-29T23:43:59.050Z,12.96
2018-04-29T23:46:28.917Z,12.86
2018-04-29T23:48:59.311Z,12.78
2018-04-29T23:51:29.557Z,12.61
2018-04-29T23:53:59.824Z,12.68
2018-04-29T23:56:29.693Z,12.68
2018-04-29T23:59:00.094Z,12.69
